Terminal Aerodrome Forecast
Issued by NWS Corpus Christi, TX

Home | Current Version | Previous Version | Text Only | Print | Product List | Glossary On
Versions: 1 2 3 4 5 6 7 8 9 10 11 12 13 14 15 16 17
000
FTUS44 KCRP 261742
TAFVCT
TAF
KVCT 261742Z 2618/2718 16012G18KT P6SM VCSH BKN035
      TEMPO 2618/2620 BKN030
     FM270200 15016KT P6SM OVC018
     FM270500 17006KT 5SM BR BKN009
     FM270900 16006KT 2SM BR BKN004
      TEMPO 2712/2714 FEW004 BKN009
     FM271400 15006KT 6SM BR FEW004 BKN009=

USA.gov is the U.S. government's official web portal to all federal, state and local government web resources and services.